• Join FlightAware (Why Join?)
  • Login
  • US Flag 
03:46AM EDT


 

Airport Tracker/Info


-or-


 

Live Flight TrackerFlight Track Log ✈ UAL1571 ✈ 09-May-2013 ✈ KSFO - KBOS

Flight Track Log - Related Links

Times and Time Zones

All times are in EDT time to prevent confusion due to time zone crossing. See the UAL1571 flight status page for this flight to view local times or setup timezone preferences in your user account.

Time Position Orientation Groundspeed Altitude Reporting Facility
EDT Latitude Longitude Course Direction KTS MPH feet Rate Location/Type
09:16AM 37.7150 -122.5250 84° East 239 275 5,800  Level FlightAware
09:17AM 37.9584 -122.1660 84° East  Level FlightAware Approximate
09:17AM 37.7340 -122.5200 12° North 244 281 6,500  Level FlightAware
09:17AM 37.7670 -122.5080 16° North 242 278 7,900 2,580 Climbing FlightAware
09:17AM 37.7960 -122.4980 15° North 249 287 8,900 2,100 Climbing FlightAware
09:18AM 37.8100 -122.4870 32° Northeast 256 295 9,300 1,380 Climbing FlightAware
09:18AM 37.8220 -122.4700 48° Northeast 272 313 9,600 1,380 Climbing FlightAware
09:18AM 37.8290 -122.4480 68° East 283 326 10,000 1,260 Climbing FlightAware
09:19AM 37.8350 -122.3770 84° East 322 371 10,800 1,320 Climbing FlightAware
09:20AM 37.8510 -122.2980 76° East 354 407 11,800 1,800 Climbing FlightAware
09:20AM 37.8680 -122.2050 77° East 368 423 13,400 2,220 Climbing FlightAware
09:21AM 37.8830 -122.1200 77° East 372 428 15,000 2,220 Climbing FlightAware
09:22AM 37.9000 -122.0250 77° East 382 440 16,600 2,040 Climbing FlightAware
09:22AM 37.9150 -121.9380 78° East 391 450 17,900 1,920 Climbing FlightAware
09:23AM 37.9330 -121.8370 77° East 394 453 19,400 1,920 Climbing FlightAware
09:24AM 37.9490 -121.7450 78° East 399 459 20,700 1,800 Climbing FlightAware
09:24AM 37.9640 -121.6540 78° East 407 468 21,800 1,500 Climbing FlightAware
09:25AM 37.9830 -121.5480 77° East 416 479 22,900 1,500 Climbing FlightAware
09:26AM 37.9990 -121.4530 78° East 418 481 24,000 1,620 Climbing FlightAware
09:27AM 38.0170 -121.3450 78° East 420 483 25,200 1,500 Climbing FlightAware
09:27AM 38.0340 -121.2450 78° East 423 487 26,200 1,320 Climbing FlightAware
09:28AM 38.0480 -121.1630 78° East 426 490 26,900 1,080 Climbing FlightAware
09:29AM 38.0690 -121.0380 78° East 431 496 27,800 1,260 Climbing FlightAware
09:29AM 38.0900 -120.9410 75° East 428 493 28,800 1,320 Climbing FlightAware
09:30AM 38.1160 -120.8340 73° East 428 493 29,700 1,200 Climbing FlightAware
09:31AM 38.1380 -120.7400 73° East 426 490 30,500 1,200 Climbing FlightAware
09:31AM 38.1610 -120.6440 73° East 424 488 31,300 1,200 Climbing FlightAware
09:32AM 38.1880 -120.5350 72° East 420 483 32,200 1,080 Climbing FlightAware
09:33AM 38.2060 -120.4590 73° East 417 480 32,800 960 Climbing FlightAware
09:34AM 38.2310 -120.3510 74° East 418 481 33,500 840 Climbing FlightAware
09:34AM 38.2570 -120.2430 73° East 419 482 34,100 600 Climbing FlightAware
09:35AM 38.2790 -120.1480 74° East 422 486 34,400 540 Climbing FlightAware
09:36AM 38.3040 -120.0390 74° East 422 486 34,900 420 Climbing FlightAware
09:36AM 38.3260 -119.9430 74° East 417 480 35,000 60 Climbing FlightAware
09:37AM 38.3500 -119.8410 73° East 416 479 35,000  Level FlightAware
09:38AM 38.3710 -119.7520 73° East 416 479 35,000  Level FlightAware
09:38AM 38.3910 -119.6650 74° East 413 475 35,000  Level FlightAware
09:39AM 38.4100 -119.5860 73° East 413 475 35,000  Level FlightAware
09:40AM 38.4370 -119.4630 74° East 408 470 35,000  Level FlightAware
09:41AM 38.4580 -119.3700 74° East 405 466 35,000  Level FlightAware
09:41AM 38.4820 -119.2620 74° East 404 465 35,000  Level FlightAware
09:42AM 38.5000 -119.1900 72° East 404 465 35,000  Level FlightAware
09:43AM 38.5230 -119.0930 73° East 404 465 35,000  Level FlightAware
09:43AM 38.5410 -119.0150 74° East 404 465 35,000  Level FlightAware
09:44AM 38.5600 -118.9380 72° East 404 465 35,000  Level FlightAware
09:45AM 38.5790 -118.8600 73° East 404 465 35,000  Level FlightAware
09:45AM 38.5970 -118.7820 74° East 404 465 35,000  Level FlightAware
09:46AM 38.6200 -118.6850 73° East 404 465 35,000  Level FlightAware
09:47AM 38.6390 -118.6070 73° East 404 465 35,000  Level FlightAware
09:48AM 38.6580 -118.5290 73° East 404 465 35,000  Level FlightAware
09:48AM 38.6760 -118.4520 73° East 404 465 35,000  Level FlightAware
09:49AM 38.6950 -118.3740 73° East 404 465 35,000  Level FlightAware
09:50AM 38.7130 -118.2960 74° East 404 465 35,000  Level FlightAware
09:50AM 38.7360 -118.1980 73° East 404 465 35,000  Level FlightAware
09:51AM 38.7550 -118.1210 72° East 404 465 35,000  Level FlightAware
09:52AM 38.6400 -117.7422 72° East 398 458 35,000  Level Oakland Center
09:53AM 38.6519 -117.6011 84° East 398 458 35,000  Level Oakland Center
09:54AM 38.6653 -117.4592 83° East 400 460 35,000  Level Oakland Center
09:55AM 38.6742 -117.3461 84° East 399 459 35,000  Level Salt Lake Center
09:56AM 38.6975 -117.1747 80° East 405 466 35,000  Level Salt Lake Center
09:57AM 38.7178 -117.0333 80° East 403 464 35,000  Level Salt Lake Center
09:58AM 38.7394 -116.8917 79° East 404 465 35,000  Level Oakland Center
09:59AM 38.7597 -116.7506 80° East 402 463 35,000  Level Oakland Center
10:00AM 38.7811 -116.6078 79° East 405 466 35,000  Level Salt Lake Center
10:01AM 38.8017 -116.4661 79° East 403 464 35,000  Level Oakland Center
10:02AM 38.8211 -116.3247 80° East 401 461 35,000  Level Salt Lake Center
10:03AM 38.8419 -116.1817 79° East 407 468 35,000  Level Salt Lake Center
10:04AM 38.8611 -116.0397 80° East 405 466 35,000  Level Salt Lake Center
10:05AM 38.8819 -115.8975 79° East 404 465 35,000  Level Salt Lake Center
10:06AM 38.9011 -115.7550 80° East 404 465 35,000  Level Salt Lake Center
10:07AM 38.9217 -115.6100 80° East 411 473 35,000  Level Salt Lake Center
10:08AM 38.9439 -115.4378 81° East 409 471 35,000  Level Salt Lake Center
10:09AM 38.9628 -115.3028 80° East 409 471 35,000  Level Salt Lake Center
10:10AM 38.9800 -115.1628 81° East 402 463 35,000  Level Salt Lake Center
10:11AM 38.9986 -115.0200 80° East 402 463 35,000  Level Salt Lake Center
10:12AM 39.0172 -114.8778 80° East 404 465 35,000  Level Salt Lake Center
10:13AM 39.0358 -114.7361 80° East 403 464 35,000  Level Salt Lake Center
10:14AM 39.0628 -114.5603 79° East 410 472 35,000  Level Salt Lake Center
10:16AM 39.0786 -114.4169 82° East 406 467 35,000  Level Salt Lake Center
10:17AM 39.0969 -114.2736 81° East 406 467 35,000  Level Salt Lake Center
10:18AM 39.1150 -114.1292 81° East 408 470 35,000  Level Salt Lake Center
10:19AM 39.1322 -113.9836 81° East 410 472 35,000  Level Salt Lake Center
10:20AM 39.1508 -113.8372 81° East 412 474 35,000  Level Salt Lake Center
10:21AM 39.1683 -113.6911 81° East 413 475 35,000  Level Salt Lake Center
10:22AM 39.1847 -113.5450 82° East 412 474 35,000  Level Salt Lake Center
10:23AM 39.2056 -113.3708 81° East 409 471 35,000  Level Salt Lake Center
10:24AM 39.2228 -113.2247 81° East 412 474 35,000  Level Salt Lake Center
10:25AM 39.2386 -113.0797 82° East 410 472 35,000  Level Salt Lake Center
10:31AM 39.3750 -112.2520 82° East 410 472 35,000  Level FlightAware
10:32AM 39.4120 -112.1240 69° East 410 472 35,000  Level FlightAware
10:32AM 39.4350 -112.0390 71° East 411 473 35,000  Level FlightAware
10:33AM 39.4670 -111.9270 70° East 412 474 35,000  Level FlightAware
10:34AM 39.4970 -111.8210 70° East 414 476 35,000  Level FlightAware
10:34AM 39.5210 -111.7360 70° East 415 478 35,000  Level FlightAware
10:35AM 39.5430 -111.6560 70° East 415 478 35,000  Level FlightAware
10:36AM 39.5650 -111.5770 70° East 415 478 35,000  Level FlightAware
10:36AM 39.5880 -111.4970 70° East 415 478 35,000  Level FlightAware
10:37AM 39.6150 -111.3980 70° East 415 478 35,000  Level FlightAware
10:38AM 39.6580 -111.2370 71° East 419 482 35,000  Level FlightAware
10:39AM 39.6890 -111.1250 70° East 419 482 35,000  Level FlightAware
10:39AM 39.7130 -111.0370 70° East 420 483 35,000  Level FlightAware
10:40AM 39.7310 -110.9730 70° East 420 483 35,000  Level FlightAware
10:41AM 39.7660 -110.8430 71° East 420 483 35,000  Level FlightAware
10:41AM 39.7940 -110.7370 71° East 420 483 35,000  Level FlightAware
10:42AM 39.8190 -110.6450 70° East 417 480 35,000  Level FlightAware
10:43AM 39.8470 -110.5390 71° East 414 476 35,000  Level FlightAware
10:43AM 39.8730 -110.4410 71° East 414 476 35,000  Level FlightAware
10:44AM 39.9010 -110.3370 71° East 414 476 35,000  Level FlightAware
10:45AM 39.9250 -110.2440 71° East 414 476 35,000  Level FlightAware
10:46AM 39.9530 -110.1380 71° East 416 479 35,000  Level FlightAware
10:46AM 39.9800 -110.0370 71° East 417 480 35,000  Level FlightAware
10:47AM 40.0040 -109.9450 71° East 419 482 35,000  Level FlightAware
10:48AM 40.0340 -109.8280 71° East 421 484 35,000  Level FlightAware
10:49AM 40.0660 -109.7030 71° East 426 490 35,000  Level FlightAware
10:49AM 40.0910 -109.6050 72° East 429 494 35,000  Level FlightAware
10:50AM 40.1170 -109.5060 71° East 432 497 35,000  Level FlightAware
10:51AM 40.1450 -109.3940 72° East 433 498 35,000  Level FlightAware
10:51AM 40.1680 -109.3070 71° East 435 501 35,000  Level FlightAware
10:52AM 40.1970 -109.1900 72° East 435 501 35,000  Level FlightAware
10:53AM 40.2230 -109.0870 72° East 436 502 35,000  Level FlightAware
10:53AM 40.2470 -108.9920 72° East 436 502 35,000  Level FlightAware
10:54AM 40.2750 -108.8780 72° East 436 502 35,000  Level FlightAware
10:55AM 40.3030 -108.7670 72° East 435 501 35,000  Level FlightAware
10:55AM 40.3250 -108.6770 72° East 433 498 35,000  Level FlightAware
10:56AM 40.3520 -108.5660 72° East 433 498 35,000  Level FlightAware
10:57AM 40.3780 -108.4620 72° East 432 497 35,000  Level FlightAware
10:58AM 40.4070 -108.3440 72° East 433 498 35,000  Level FlightAware
10:58AM 40.4330 -108.2350 73° East 433 498 35,000  Level FlightAware
10:59AM 40.4570 -108.1360 72° East 433 498 35,000  Level FlightAware
11:00AM 40.4800 -108.0430 72° East 433 498 35,000  Level FlightAware
11:00AM 40.5080 -107.9270 72° East 434 499 35,000  Level FlightAware
11:01AM 40.5280 -107.8390 73° East 436 502 35,000  Level FlightAware
11:02AM 40.5580 -107.7160 72° East 436 502 35,000  Level FlightAware
11:02AM 40.5770 -107.6330 73° East 436 502 35,000  Level FlightAware
11:03AM 40.6070 -107.5050 73° East 435 501 35,000  Level FlightAware
11:04AM 40.6310 -107.4030 73° East 436 502 35,000  Level FlightAware
11:04AM 40.6500 -107.3250 72° East 439 505 35,000  Level FlightAware
11:05AM 40.6810 -107.1970 72° East 439 505 35,000  Level FlightAware
11:06AM 40.7020 -107.1110 72° East 439 505 35,000  Level FlightAware
11:07AM 40.7240 -107.0240 72° East 439 505 35,000  Level FlightAware
11:07AM 40.7600 -106.8460 75° East 447 514 35,000  Level FlightAware
11:08AM 40.7760 -106.7760 73° East 447 514 35,000  Level FlightAware
11:09AM 40.8020 -106.6650 73° East 447 514 35,000  Level FlightAware
11:09AM 40.8290 -106.5370 74° East 434 499 35,000  Level FlightAware
11:10AM 40.8550 -106.4230 73° East 436 502 35,000  Level FlightAware
11:11AM 40.8810 -106.3070 73° East 436 502 35,000  Level FlightAware
11:12AM 40.9040 -106.2060 73° East 438 504 35,000  Level FlightAware
11:12AM 40.9290 -106.0920 74° East 439 505 35,000  Level FlightAware
11:13AM 40.9510 -105.9900 74° East 438 504 35,000  Level FlightAware
11:14AM 40.9750 -105.8840 73° East 437 503 35,000  Level FlightAware
11:14AM 40.9990 -105.7700 74° East 437 503 35,000  Level FlightAware
11:15AM 41.0220 -105.6670 73° East 438 504 35,000  Level FlightAware
11:16AM 41.0440 -105.5660 74° East 438 504 35,000  Level FlightAware
11:17AM 41.0690 -105.4500 74° East 439 505 35,000  Level FlightAware
11:17AM 41.0900 -105.3510 74° East 440 506 35,000  Level FlightAware
11:18AM 41.1137 -105.2370 75° East 441 507 35,000  Level FlightAware ADS-B
11:18AM 41.1303 -105.1590 74° East 442 509 35,000  Level FlightAware ADS-B
11:19AM 41.1471 -105.0790 74° East 443 510 35,000  Level FlightAware ADS-B
11:19AM 41.1647 -104.9950 74° East 444 511 35,000  Level FlightAware ADS-B
11:20AM 41.1828 -104.9080 75° East 444 511 35,000  Level FlightAware ADS-B
11:20AM 41.1994 -104.8280 75° East 445 512 35,000  Level FlightAware ADS-B
11:21AM 41.2132 -104.7630 74° East 445 512 35,000  Level FlightAware ADS-B
11:21AM 41.2320 -104.6840 72° East 444 511 35,000  Level FlightAware ADS-B
11:22AM 41.2509 -104.6040 73° East 445 512 35,000  Level FlightAware ADS-B
11:22AM 41.2695 -104.5250 73° East 443 510 35,000  Level FlightAware ADS-B
11:23AM 41.2881 -104.4470 72° East 443 510 35,000  Level FlightAware ADS-B
11:23AM 41.3063 -104.3690 73° East 443 510 35,000  Level FlightAware ADS-B
11:24AM 41.3248 -104.2890 73° East 443 510 35,000  Level FlightAware ADS-B
11:24AM 41.3433 -104.2090 73° East 443 510 35,000  Level FlightAware ADS-B
11:25AM 41.3616 -104.1310 73° East 443 510 35,000  Level FlightAware ADS-B
11:25AM 41.3796 -104.0530 73° East 443 510 35,000  Level FlightAware ADS-B
11:26AM 41.3978 -103.9730 73° East 442 509 35,000  Level FlightAware ADS-B
11:26AM 41.4160 -103.8940 73° East 443 510 35,000  Level FlightAware ADS-B
11:27AM 41.4339 -103.8150 73° East 443 510 35,000  Level FlightAware ADS-B
11:27AM 41.4525 -103.7330 73° East 443 510 35,000  Level FlightAware ADS-B
11:28AM 41.4721 -103.6470 73° East 443 510 35,000  Level FlightAware ADS-B
11:29AM 41.4911 -103.5620 73° East 444 511 35,000  Level FlightAware ADS-B
11:29AM 41.5034 -103.4800 79° East 444 511 35,000  Level FlightAware ADS-B
11:30AM 41.5151 -103.3980 79° East 445 512 35,000  Level FlightAware ADS-B
11:30AM 41.5268 -103.3170 79° East 446 513 35,000  Level FlightAware ADS-B
11:31AM 41.5384 -103.2360 79° East 447 514 35,000  Level FlightAware ADS-B
11:31AM 41.5517 -103.1420 79° East 448 516 35,000  Level FlightAware ADS-B
11:32AM 41.5634 -103.0610 79° East 449 517 35,000  Level FlightAware ADS-B
11:32AM 41.5778 -102.9580 79° East 451 519 35,000  Level FlightAware ADS-B
11:33AM 41.5945 -102.8390 79° East 452 520 35,000  Level FlightAware ADS-B
11:34AM 41.6066 -102.7520 79° East 452 520 35,000  Level FlightAware ADS-B
11:34AM 41.6182 -102.6680 80° East 452 520 35,000  Level FlightAware ADS-B
11:35AM 41.6310 -102.5720 80° East 453 521 35,000  Level FlightAware
11:35AM 41.6372 -102.5290 79° East 452 520 35,000  Level FlightAware ADS-B
11:36AM 41.6563 -102.3890 80° East 453 521 35,000  Level FlightAware ADS-B
11:37AM 41.6768 -102.2360 80° East 454 522 35,000  Level FlightAware ADS-B
11:37AM 41.6881 -102.1510 80° East 454 522 35,000  Level FlightAware ADS-B
11:38AM 41.6998 -102.0630 80° East 453 521 35,000  Level FlightAware ADS-B
11:38AM 41.7115 -101.9750 80° East 453 521 35,000  Level FlightAware ADS-B
11:39AM 41.7230 -101.8870 80° East 453 521 35,000  Level FlightAware ADS-B
11:39AM 41.7366 -101.7830 80° East 452 520 35,000  Level FlightAware ADS-B
11:40AM 41.7478 -101.6970 80° East 453 521 35,000  Level FlightAware ADS-B
11:41AM 41.7744 -101.4880 80° East 453 521 35,000  Level FlightAware ADS-B
11:42AM 41.7859 -101.3970 80° East 453 521 35,000  Level FlightAware ADS-B
11:42AM 41.7964 -101.3156 80° East 451 519 35,000  Level Denver Center
11:43AM 41.8169 -101.1553 80° East 454 522 35,000  Level Denver Center
11:44AM 41.8364 -100.9947 81° East 455 524 35,000  Level Denver Center
11:45AM 41.8583 -100.8072 81° East 455 524 35,000  Level Denver Center
11:46AM 41.8775 -100.6453 81° East 458 527 35,000  Level Denver Center
11:47AM 41.9003 -100.4589 81° East 455 524 35,000  Level Denver Center
11:49AM 41.9192 -100.2978 81° East 455 524 35,000  Level Denver Center
11:50AM 41.9406 -100.1072 81° East 460 529 35,000  Level Denver Center
11:51AM 41.9589 -99.9456 81° East 459 528 35,000  Level Denver Center
11:52AM 41.9797 -99.7558 82° East 459 528 35,000  Level Denver Center
11:53AM 41.9994 -99.5886 81° East 458 527 35,000  Level Denver Center
11:54AM 42.0181 -99.4183 82° East 458 527 35,000  Level Denver Center
11:55AM 42.0358 -99.2469 82° East 462 532 35,000  Level Denver Center
11:56AM 42.0544 -99.0725 82° East 467 537 35,000  Level Denver Center
11:56AM 42.0619 -99.0061 81° East 464 534 35,000  Level Minneapolis Center
11:57AM 42.0842 -98.7964 82° East 467 537 35,000  Level Minneapolis Center
11:58AM 42.1011 -98.6239 82° East 466 536 35,000  Level Minneapolis Center
11:59AM 42.1183 -98.4500 82° East 466 536 35,000  Level Minneapolis Center
12:00PM 42.1358 -98.2772 82° East 465 535 35,000  Level Minneapolis Center
12:02PM 42.1522 -98.1039 83° East 465 535 35,000  Level Minneapolis Center
12:03PM 42.1728 -97.8933 82° East 471 542 35,000  Level Minneapolis Center
12:04PM 42.1886 -97.7219 83° East 472 543 35,000  Level Minneapolis Center
12:10PM 42.2860 -96.6080 83° East 483 556 35,000  Level FlightAware
12:10PM 42.2960 -96.4850 84° East 483 556 35,000  Level FlightAware
12:11PM 42.3070 -96.3530 84° East 483 556 35,000  Level FlightAware
12:12PM 42.3160 -96.2370 84° East 484 557 35,000  Level FlightAware
12:12PM 42.3260 -96.1130 84° East 483 556 35,000  Level FlightAware
12:13PM 42.3370 -95.9750 84° East 484 557 35,000  Level FlightAware
12:14PM 42.3460 -95.8520 84° East 486 559 35,000  Level FlightAware
12:15PM 42.3560 -95.7240 84° East 488 562 35,000  Level FlightAware
12:15PM 42.3650 -95.5980 84° East 490 564 35,000  Level FlightAware
12:16PM 42.3740 -95.4760 84° East 491 565 35,000  Level FlightAware
12:17PM 42.3840 -95.3360 84° East 492 566 35,000  Level FlightAware
12:17PM 42.3930 -95.2180 84° East 493 567 35,000  Level FlightAware
12:18PM 42.4020 -95.0810 85° East 494 568 35,000  Level FlightAware
12:19PM 42.4110 -94.9560 84° East 495 570 35,000  Level FlightAware
12:19PM 42.4190 -94.8320 85° East 493 567 35,000  Level FlightAware
12:20PM 42.4290 -94.6920 84° East 492 566 35,000  Level FlightAware
12:21PM 42.4370 -94.5690 85° East 492 566 35,000  Level FlightAware
12:22PM 42.4440 -94.4520 85° East 492 566 35,000  Level FlightAware
12:22PM 42.4530 -94.3090 85° East 495 570 35,000  Level FlightAware
12:23PM 42.4610 -94.1770 85° East 497 572 35,000  Level FlightAware
12:24PM 42.4690 -94.0500 85° East 499 574 35,000  Level FlightAware
12:24PM 42.4780 -93.9070 85° East 500 575 35,000  Level FlightAware
12:25PM 42.4850 -93.7800 86° East 500 575 35,000  Level FlightAware
12:26PM 42.4920 -93.6560 86° East 501 577 35,000  Level FlightAware
12:27PM 42.5000 -93.5170 85° East 502 578 35,000  Level FlightAware
12:27PM 42.5070 -93.3940 86° East 503 579 35,000  Level FlightAware
12:28PM 42.5140 -93.2500 86° East 504 580 35,000  Level FlightAware
12:29PM 42.5210 -93.1220 86° East 504 580 35,000  Level FlightAware
12:29PM 42.5280 -92.9830 86° East 504 580 35,000  Level FlightAware
12:30PM 42.5340 -92.8600 86° East 504 580 35,000  Level FlightAware
12:31PM 42.5410 -92.7360 86° East 504 580 35,000  Level FlightAware
12:31PM 42.5480 -92.5860 86° East 506 582 35,000  Level FlightAware
12:32PM 42.5540 -92.4620 86° East 507 583 35,000  Level FlightAware
12:33PM 42.5570 -92.3240 88° East 509 586 35,000  Level FlightAware
12:34PM 42.5590 -92.1950 89° East 510 587 35,000  Level FlightAware
12:34PM 42.5600 -92.0660 89° East 512 589 35,000  Level FlightAware
12:35PM 42.5620 -91.9200 89° East 514 592 35,000  Level FlightAware
12:36PM 42.5630 -91.8100 89° East 515 593 35,000  Level FlightAware
12:36PM 42.5640 -91.6480 89° East 516 594 35,000  Level FlightAware
12:37PM 42.5640 -91.5240 90° East 515 593 35,000  Level FlightAware
12:38PM 42.5650 -91.3920 89° East 513 590 35,000  Level FlightAware
12:38PM 42.5660 -91.2450 89° East 512 589 35,000  Level FlightAware
12:39PM 42.5660 -91.1420 90° East 511 588 35,000  Level FlightAware
12:40PM 42.5660 -90.9910 90° East 510 587 35,000  Level FlightAware
12:41PM 42.5660 -90.8470 90° East 510 587 35,000  Level FlightAware
12:41PM 42.5660 -90.7190 90° East 510 587 35,000  Level FlightAware
12:42PM 42.5660 -90.5740 90° East 511 588 35,000  Level FlightAware
12:43PM 42.5650 -90.4550 91° East 511 588 35,000  Level FlightAware
12:43PM 42.5650 -90.3180 90° East 510 587 35,000  Level FlightAware
12:44PM 42.5640 -90.1790 91° East 509 586 35,000  Level FlightAware
12:45PM 42.5630 -90.0500 91° East 509 586 35,000  Level FlightAware
12:45PM 42.5620 -89.9230 91° East 508 585 35,000  Level FlightAware
12:46PM 42.5610 -89.7780 90° East 507 583 35,000  Level FlightAware
12:47PM 42.5590 -89.6580 91° East 506 582 35,000  Level FlightAware
12:48PM 42.5580 -89.5120 90° East 507 583 35,000  Level FlightAware
12:48PM 42.5560 -89.3790 91° East 506 582 35,000  Level FlightAware
12:49PM 42.5540 -89.2580 91° East 505 581 35,000  Level FlightAware
12:50PM 42.5520 -89.1130 91° East 504 580 35,000  Level FlightAware
12:50PM 42.5500 -88.9880 91° East 503 579 35,000  Level FlightAware
12:51PM 42.5480 -88.8630 91° East 503 579 35,000  Level FlightAware
12:52PM 42.5460 -88.7250 91° East 507 583 35,000  Level FlightAware
12:52PM 42.5430 -88.5940 92° East 509 586 35,000  Level FlightAware
12:53PM 42.5400 -88.4500 92° East 510 587 35,000  Level FlightAware
12:54PM 42.5370 -88.3200 92° East 511 588 35,000  Level FlightAware
12:54PM 42.5340 -88.1950 92° East 512 589 35,000  Level FlightAware
12:55PM 42.5310 -88.0520 92° East 513 590 35,000  Level FlightAware
12:56PM 42.5270 -87.9070 92° East 515 593 35,000  Level FlightAware
12:57PM 42.5240 -87.7750 92° East 516 594 35,000  Level FlightAware
12:57PM 42.5200 -87.6460 92° East 516 594 35,000  Level FlightAware
12:58PM 42.5160 -87.5080 92° East 516 594 35,000  Level FlightAware
12:59PM 42.5120 -87.3770 92° East 516 594 35,000  Level FlightAware
12:59PM 42.5070 -87.2300 93° East 515 593 35,000  Level FlightAware
01:00PM 42.5030 -87.1010 92° East 511 588 35,000  Level FlightAware
01:01PM 42.4990 -86.9610 92° East 508 585 35,000  Level FlightAware
01:02PM 42.4940 -86.8380 93° East 507 583 35,000  Level FlightAware
01:02PM 42.4880 -86.6590 93° East 504 580 35,000  Level FlightAware
01:03PM 42.4820 -86.5170 93° East 503 579 35,000  Level FlightAware
01:04PM 42.4780 -86.3960 93° East 501 577 35,000  Level FlightAware
01:04PM 42.4730 -86.2850 93° East 499 574 35,000  Level FlightAware
01:05PM 42.4670 -86.1220 93° East 496 571 35,000  Level FlightAware
01:06PM 42.4650 -86.0010 91° East 492 566 35,000  Level FlightAware
01:07PM 42.4630 -85.8770 91° East 489 563 35,000  Level FlightAware
01:07PM 42.4610 -85.7440 91° East 486 559 35,000  Level FlightAware
01:08PM 42.4590 -85.6230 91° East 483 556 35,000  Level FlightAware
01:09PM 42.4570 -85.4840 91° East 481 554 35,000  Level FlightAware
01:09PM 42.4550 -85.4030 92° East 483 556 35,000  Level FlightAware
01:10PM 42.4640 -85.2610 85° East 487 560 35,000  Level FlightAware
01:11PM 42.4750 -85.1180 84° East 488 562 35,000  Level FlightAware
01:12PM 42.4840 -84.9890 85° East 487 560 35,000  Level FlightAware
01:12PM 42.4940 -84.8570 84° East 490 564 35,000  Level FlightAware
01:13PM 42.5030 -84.7270 85° East 491 565 35,000  Level FlightAware
01:14PM 42.5130 -84.5900 84° East 493 567 35,000  Level FlightAware
01:14PM 42.5210 -84.4700 85° East 495 570 35,000  Level FlightAware
01:15PM 42.5300 -84.3450 84° East 496 571 35,000  Level FlightAware
01:16PM 42.5390 -84.2080 85° East 497 572 35,000  Level FlightAware
01:16PM 42.5470 -84.0840 85° East 498 573 35,000  Level FlightAware
01:17PM 42.5550 -83.9610 85° East 499 574 35,000  Level FlightAware
01:18PM 42.5630 -83.8230 85° East 501 577 35,000  Level FlightAware
01:19PM 42.5700 -83.7080 85° East 502 578 35,000  Level FlightAware
01:19PM 42.5770 -83.5890 85° East 502 578 35,000  Level FlightAware
01:20PM 42.5840 -83.4770 85° East 500 575 35,000  Level FlightAware
01:21PM 42.5950 -83.2870 85° East 498 573 35,000  Level FlightAware
01:21PM 42.6020 -83.1670 85° East 496 571 35,000  Level FlightAware
01:22PM 42.6110 -83.0140 85° East 494 568 35,000  Level FlightAware
01:23PM 42.6170 -82.8980 86° East 490 564 35,000  Level FlightAware
01:24PM 42.6240 -82.7570 86° East 484 557 35,000  Level FlightAware
01:24PM 42.6310 -82.6300 86° East 482 555 35,000  Level FlightAware
01:25PM 42.6370 -82.5180 86° East 481 554 35,000  Level FlightAware
01:26PM 42.6430 -82.3910 86° East 479 551 35,000  Level FlightAware
01:26PM 42.6490 -82.2660 86° East 479 551 35,000  Level FlightAware
01:27PM 42.6550 -82.1560 86° East 479 551 35,000  Level FlightAware
01:28PM 42.6610 -82.0170 87° East 478 550 35,000  Level FlightAware
01:29PM 42.6680 -81.8680 86° East 479 551 35,000  Level FlightAware
01:29PM 42.6720 -81.7830 86° East 479 551 35,000  Level FlightAware
01:30PM 42.6780 -81.6300 87° East 478 550 35,000  Level FlightAware
01:31PM 42.6830 -81.5290 86° East 477 549 35,000  Level FlightAware
01:31PM 42.6890 -81.3850 87° East 473 544 35,000  Level FlightAware
01:32PM 42.6940 -81.2480 87° East 471 542 35,000  Level FlightAware
01:33PM 42.6990 -81.1380 86° East 470 541 35,000  Level FlightAware
01:33PM 42.7030 -81.0270 87° East 470 541 35,000  Level FlightAware
01:34PM 42.7080 -80.8780 87° East 470 541 35,000  Level FlightAware
01:35PM 42.7120 -80.7670 87° East 470 541 35,000  Level FlightAware
01:36PM 42.7170 -80.6360 87° East 470 541 35,000  Level FlightAware
01:36PM 42.7210 -80.5160 87° East 471 542 35,000  Level FlightAware
01:37PM 42.7250 -80.3800 88° East 471 542 35,000  Level FlightAware
01:38PM 42.7290 -80.2570 87° East 472 543 35,000  Level FlightAware
01:38PM 42.7330 -80.1420 87° East 472 543 35,000  Level FlightAware
01:39PM 42.7360 -80.0070 88° East 473 544 35,000  Level FlightAware
01:40PM 42.7390 -79.9030 88° East 472 543 35,000  Level FlightAware
01:40PM 42.7440 -79.7480 87° East 470 541 35,000  Level FlightAware
01:41PM 42.7470 -79.6170 88° East 469 540 35,000  Level FlightAware
01:42PM 42.7500 -79.4970 88° East 467 537 35,000  Level FlightAware
01:43PM 42.7580 -79.3600 85° East 462 532 35,000  Level FlightAware
01:43PM 42.7710 -79.2480 81° East 462 532 35,000  Level FlightAware
01:44PM 42.7870 -79.1230 80° East 464 534 35,000  Level FlightAware
01:45PM 42.8000 -79.0060 81° East 465 535 35,000  Level FlightAware
01:45PM 42.8130 -78.8900 81° East 466 536 35,000  Level FlightAware
01:46PM 42.8270 -78.7560 82° East 467 537 35,000  Level FlightAware
01:47PM 42.8370 -78.6440 83° East 468 539 35,000  Level FlightAware
01:48PM 42.8480 -78.5120 83° East 468 539 35,000  Level FlightAware
01:48PM 42.8580 -78.3960 83° East 469 540 35,000  Level FlightAware
01:49PM 42.8680 -78.2780 83° East 469 540 35,000  Level FlightAware
01:50PM 42.8800 -78.1440 83° East 467 537 35,000  Level FlightAware
01:50PM 42.8910 -78.0280 83° East 464 534 35,000  Level FlightAware
01:51PM 42.9010 -77.9170 83° East 459 528 35,000  Level FlightAware
01:52PM 42.9130 -77.7910 83° East 457 526 35,000  Level FlightAware
01:52PM 42.9230 -77.6770 83° East 456 525 35,000  Level FlightAware
01:53PM 42.9340 -77.5490 83° East 454 522 35,000  Level FlightAware
01:54PM 42.9450 -77.4360 82° East 453 521 35,000  Level FlightAware
01:54PM 42.9560 -77.3240 82° East 452 520 35,000  Level FlightAware
01:55PM 42.9550 -77.1940 91° East 456 525 35,000  Level FlightAware
01:56PM 42.9480 -77.0650 94° East 454 522 35,000  Level FlightAware
01:57PM 42.9430 -76.9510 93° East 457 526 35,000  Level FlightAware
01:57PM 42.9370 -76.8450 94° East 457 526 35,000  Level FlightAware
01:58PM 42.9310 -76.7240 94° East 459 528 35,000  Level FlightAware
01:59PM 42.9250 -76.5970 94° East 460 529 35,000  Level FlightAware
01:59PM 42.9190 -76.4750 94° East 460 529 35,000  Level FlightAware
02:00PM 42.9120 -76.3460 94° East 460 529 35,000  Level FlightAware
02:01PM 42.9050 -76.2300 95° East 459 528 35,000  Level FlightAware
02:01PM 42.8990 -76.1140 94° East 460 529 35,000  Level FlightAware
02:02PM 42.8920 -75.9860 94° East 460 529 35,000  Level FlightAware
02:03PM 42.8850 -75.8680 95° East 460 529 35,000  Level FlightAware
02:04PM 42.8780 -75.7380 94° East 460 529 35,000  Level FlightAware
02:04PM 42.8710 -75.6240 95° East 456 525 35,000  Level FlightAware
02:05PM 42.8640 -75.5130 95° East 456 525 35,000  Level FlightAware
02:06PM 42.8560 -75.3870 95° East 457 526 35,000  Level FlightAware
02:06PM 42.8500 -75.2800 94° East 457 526 35,000  Level FlightAware
02:07PM 42.8410 -75.1450 95° East 457 526 35,000  Level FlightAware
02:08PM 42.8330 -75.0240 95° East 458 527 35,000  Level FlightAware
02:08PM 42.8260 -74.9140 95° East 458 527 35,000  Level FlightAware
02:09PM 42.8190 -74.8010 95° East 459 528 35,000  Level FlightAware
02:10PM 42.8110 -74.6880 95° East 459 528 35,000  Level FlightAware
02:11PM 42.8000 -74.5340 96° East 460 529 35,000  Level FlightAware
02:11PM 42.7930 -74.4330 95° East 456 525 35,000  Level FlightAware
02:12PM 42.7870 -74.3390 95° East 456 525 35,000  Level FlightAware
02:13PM 42.7790 -74.2180 95° East 456 525 35,000  Level FlightAware
02:13PM 42.7730 -74.1200 95° East 456 525 35,000  Level FlightAware
02:14PM 42.7670 -74.0230 95° East 456 525 35,000  Level FlightAware
02:15PM 42.7610 -73.9260 95° East 456 525 35,000  Level FlightAware
02:15PM 42.7540 -73.8280 96° East 456 525 35,000  Level FlightAware
02:16PM 42.7470 -73.7070 94° East 456 525 35,000 -3,360 Level FlightAware
02:17PM 42.6650 -73.4840 117° Southeast 448 516 30,000 -3,540 Descending FlightAware
02:18PM 42.6530 -73.3520 97° East 457 526 30,000  Level FlightAware
02:18PM 42.6460 -73.2520 95° East 457 526 30,000 -240 Level FlightAware
02:19PM 42.6440 -73.2360 100° East 30,000 -360 Level FlightAware
02:19PM 42.6290 -73.0560 96° East 441 507 29,600 -1,200 Descending FlightAware
02:20PM 42.6220 -72.9600 96° East 427 491 28,400 -1,860 Descending FlightAware
02:21PM 42.6180 -72.9180 97° East 408 470 27,000 -1,020 Descending FlightAware
02:21PM 42.6120 -72.8360 96° East 408 470 27,000 -1,680 Level FlightAware
02:22PM 42.5970 -72.6540 96° East 387 445 24,900 -2,520 Descending FlightAware
02:23PM 42.5920 -72.5940 96° East 404 465 23,700 -1,980 Descending FlightAware
02:24PM 42.5760 -72.4020 96° East 361 415 21,500 -1,980 Descending FlightAware
02:25PM 42.5670 -72.3070 97° East 356 410 20,100 -1,920 Descending FlightAware
02:25PM 42.5590 -72.2130 97° East 352 405 18,800 -1,920 Descending FlightAware
02:26PM 42.5530 -72.1370 96° East 347 399 17,700 -1,800 Descending FlightAware
02:27PM 42.5440 -72.0330 97° East 342 394 16,100 -1,860 Descending FlightAware
02:28PM 42.5330 -71.9210 98° East 338 389 14,500 -1,920 Descending FlightAware
02:28PM 42.5250 -71.8310 97° East 335 386 13,300 -1,800 Descending FlightAware
02:29PM 42.5170 -71.7470 97° East 329 379 12,000 -1,500 Descending FlightAware
02:30PM 42.5100 -71.6640 96° East 314 361 11,200 -720 Descending FlightAware
02:30PM 42.5010 -71.5770 98° East 297 342 11,000 -180 Descending FlightAware
02:31PM 42.4940 -71.5000 97° East 293 337 11,000  Level FlightAware
02:32PM 42.4870 -71.4280 97° East 297 342 11,000 -600 Level FlightAware
02:33PM 42.4790 -71.3450 97° East 294 338 10,200 -1,140 Descending FlightAware
02:33PM 42.4750 -71.3050 98° East 290 334 9,700 -1,320 Descending FlightAware
02:33PM 42.4700 -71.2460 97° East 288 331 9,000 -1,440 Descending FlightAware
02:34PM 42.4660 -71.2040 97° East 287 330 8,400 -1,440 Descending FlightAware
02:34PM 42.4610 -71.1540 98° East 284 327 7,800 -1,140 Descending FlightAware
02:35PM 42.4560 -71.0960 97° East 272 313 7,300 -780 Descending FlightAware
02:35PM 42.4530 -71.0650 97° East 261 300 7,100 -600 Descending FlightAware
02:36PM 42.4470 -71.0330 104° East 239 275 6,900 -180 Descending FlightAware
02:36PM 42.4390 -71.0210 132° Southeast 220 253 7,000 -600 Climbing FlightAware
02:36PM 42.4020 -71.0020 159° South 219 252 6,400 -1,020 Descending FlightAware
02:37PM 42.3830 -70.9940 163° South 219 252 6,100 -480 Descending FlightAware
02:37PM 42.3540 -70.9800 160° South 217 250 6,000 -120 Descending FlightAware
02:38PM 42.3300 -70.9700 163° South 235 270 6,000  Level FlightAware
02:38PM 42.3160 -70.9640 162° South 240 276 6,000  Level FlightAware
02:38PM 42.2870 -70.9510 162° South 240 276 6,000 -180 Level FlightAware
02:39PM 42.2450 -70.9560 185° South 226 260 5,800 -360 Descending FlightAware
02:39PM 42.2370 -70.9640 217° Southwest 225 259 5,700 -1,200 Descending FlightAware
02:40PM 42.2100 -70.9900 216° Southwest 219 252 5,000 -1,200 Descending FlightAware
02:40PM 42.1780 -71.0230 217° Southwest 226 260 4,200 -1,200 Descending FlightAware
02:41PM 42.1730 -71.0460 254° West 234 269 3,900 -1,380 Descending FlightAware
02:41PM 42.1770 -71.0710 282° West 243 280 3,400 -960 Descending FlightAware
02:41PM 42.1970 -71.0920 322° Northwest 243 280 3,200 -960 Descending FlightAware
02:42PM 42.2240 -71.0790 20° North 223 257 2,600 -720 Descending FlightAware
02:42PM 42.2440 -71.0570 39° Northeast 223 257 2,600 -900 Level FlightAware
02:42PM 42.2550 -71.0580 356° North 203 234 2,100 -1,020 Descending FlightAware
02:43PM 42.2960 -71.0410 17° North 203 234 1,700 -540 Descending FlightAware